Date,TemperatureHighF,TemperatureAvgF,TemperatureLowF,DewpointHighF,DewpointAvgF,DewpointLowF,HumidityHigh,HumidityAvg,HumidityLow,PressureMaxIn,PressureMinIn,WindSpeedMaxMPH,WindSpeedAvgMPH,GustSpeedMaxMPH,PrecipitationSumIn
2013-1-2,34,28,24,18,16,9,72,61,37,29.58,29.47,9,1,9,0.01
2013-1-3,35,26,17,22,17,12,82,70,50,29.61,29.53,13,1,13,0.00
2013-1-4,30,27,25,21,20,17,75,72,66,29.67,29.59,16,4,16,0.00
2013-1-5,41,32,21,28,22,16,80,68,51,29.77,29.56,12,1,12,0.03
2013-1-6,39,36,33,29,28,25,78,70,66,29.58,29.45,12,2,12,0.01
2013-1-7,34,34,34,28,28,28,79,79,78,29.58,29.58,5,3,5,0.00
2013-1-9,44,43,42,40,39,38,86,85,85,29.79,29.76,2,0,2,0.00
2013-2-15,41,34,31,31,28,25,85,80,66,29.85,29.77,8,1,8,0.01
2013-2-16,32,27,21,26,19,13,81,70,57,29.81,29.67,8,2,8,0.00
2013-2-17,22,16,12,14,6,2,79,64,53,29.97,29.69,16,4,16,0.00
2013-2-18,48,27,11,28,16,4,77,65,45,30.09,29.89,6,1,6,0.00
2013-2-19,43,34,28,38,27,15,87,74,55,29.90,29.58,15,2,15,0.19
2013-2-20,31,25,20,17,14,11,70,63,53,29.94,29.73,20,4,20,0.00
2013-2-21,43,27,13,25,16,7,76,63,43,30.03,29.90,10,1,10,0.02
2013-2-22,35,32,29,30,26,21,87,79,65,30.05,29.89,2,0,2,0.02
2013-2-23,60,41,32,47,34,29,91,78,48,29.89,29.65,5,0,5,0.00
2013-2-24,48,36,28,32,25,19,85,65,39,29.88,29.66,19,4,19,0.00
2013-2-25,44,31,20,25,20,15,81,64,43,29.96,29.86,5,1,5,0.00
2013-2-26,38,33,28,36,28,18,92,80,65,29.91,29.45,6,0,6,0.12
2013-2-27,42,38,33,35,32,30,93,81,67,29.56,29.43,12,2,12,0.02
2013-2-28,34,32,31,30,28,27,88,87,85,29.52,29.50,4,0,4,0.00
2013-3-1,30,29,28,24,22,21,77,75,74,29.71,29.67,6,1,6,0.00
2013-3-2,30,26,24,21,19,17,79,73,64,29.70,29.65,13,2,13,0.00
2013-3-3,28,24,21,18,16,12,78,71,62,29.76,29.67,11,2,11,0.00
2013-3-4,42,28,19,23,15,11,73,59,36,29.86,29.75,13,2,13,0.05
2013-3-5,43,34,26,35,27,17,89,76,64,29.85,29.44,3,0,3,0.04
2013-3-6,36,32,31,30,28,26,88,83,73,29.89,29.43,10,1,10,0.05
2013-3-7,36,32,30,28,27,24,90,80,67,30.02,29.87,13,2,13,0.04
2013-3-8,40,32,26,27,24,20,83,73,58,30.14,29.97,15,3,15,0.18
2013-3-9,61,36,19,37,24,15,87,65,33,30.16,30.02,4,0,4,0.05
2013-3-10,63,42,26,42,29,22,85,64,36,30.06,29.96,4,0,4,0.00
2013-3-11,54,44,35,47,35,29,90,73,62,29.99,29.68,7,1,7,0.03
2013-3-12,50,40,33,47,33,25,90,76,64,29.82,29.62,14,4,14,0.18
2013-3-13,40,32,25,29,24,17,84,71,53,29.90,29.75,17,3,17,0.01
2013-3-14,25,24,23,18,17,15,77,74,71,29.91,29.89,12,2,12,0.00
2013-3-15,56,49,42,35,33,30,66,53,44,29.70,29.68,9,2,9,0.00
2013-3-16,66,49,37,54,42,31,91,78,59,29.71,29.46,19,2,19,0.11
2013-3-17,47,41,36,40,36,33,90,85,77,29.92,29.71,7,0,10,0.05
2013-3-18,36,33,31,33,30,28,92,90,89,29.91,29.64,2,0,2,0.09
2013-3-19,54,40,33,35,24,4,94,59,24,29.81,29.58,23,4,23,0.10
2013-3-20,49,36,28,27,15,7,80,43,27,29.82,29.59,16,4,17,0.00
2013-3-21,30,23,18,23,13,9,77,66,51,29.73,29.57,14,3,14,0.00
2013-3-22,46,29,18,21,14,10,71,54,32,29.80,29.70,12,3,12,0.00
2013-3-23,51,34,20,26,18,12,76,53,33,29.82,29.72,10,1,10,0.00
2013-3-24,36,31,28,29,23,16,84,72,57,29.75,29.35,2,0,3,0.01
2013-3-25,37,32,29,30,26,23,87,79,64,29.55,29.30,10,1,10,0.00
2013-3-26,30,30,30,25,25,24,81,80,78,29.59,29.55,8,2,8,0.00
2013-3-27,36,33,32,28,25,24,78,73,64,29.98,29.93,10,3,10,0.02
2013-3-28,41,35,30,27,24,21,77,66,51,30.04,29.95,14,3,14,0.04
2013-3-29,54,38,32,30,27,23,77,64,37,30.06,29.99,10,2,10,0.00
2013-3-30,61,52,39,38,29,24,62,42,32,30.00,29.88,8,1,8,0.01
2013-3-31,50,42,36,47,36,26,90,81,60,29.88,29.62,8,1,8,0.04
2013-4-1,51,40,31,43,34,23,92,80,63,29.82,29.63,18,2,18,0.04
2013-4-2,47,34,28,24,18,12,74,53,30,29.95,29.81,14,2,14,0.00
2013-4-3,48,34,23,21,15,10,75,48,27,30.12,29.95,15,2,15,0.00
2013-4-4,48,34,25,28,20,12,82,58,33,30.12,29.81,4,0,4,0.00
2013-4-5,58,43,33,36,29,24,90,62,33,29.88,29.74,12,2,12,0.12
2013-4-6,68,46,28,33,26,18,83,51,19,30.05,29.88,7,1,7,0.00
2013-4-7,73,54,36,44,34,23,65,47,33,29.98,29.83,8,1,8,0.00
2013-4-8,80,60,41,52,42,34,79,54,34,29.96,29.83,8,1,8,0.00
2013-4-9,85,66,50,57,49,42,79,56,34,30.00,29.88,8,1,8,0.00
2013-4-10,90,70,51,59,50,43,79,53,29,29.93,29.77,11,2,11,0.00
2013-4-11,62,58,54,46,45,44,69,62,54,29.79,29.77,1,0,1,0.00
2013-4-12,54,50,46,37,35,33,61,56,52,29.71,29.63,11,5,11,0.00
2013-4-13,70,53,42,42,32,25,70,48,26,29.84,29.68,17,3,17,0.00
2013-4-14,78,57,37,44,35,26,77,47,23,29.92,29.81,8,1,9,0.00
2013-4-15,60,53,49,50,46,37,89,80,44,30.04,29.87,6,0,6,0.43
2013-4-16,81,64,52,62,54,48,91,74,47,30.11,29.97,11,1,11,0.00
2013-4-17,78,65,56,64,56,51,93,75,50,30.08,29.98,5,1,5,0.03
2013-4-18,77,64,56,62,56,51,89,74,57,29.99,29.79,8,1,8,0.00
2013-4-19,65,58,43,60,52,34,90,81,71,29.80,29.51,17,2,17,0.59
2013-4-20,54,43,35,36,27,23,76,55,33,30.10,29.71,13,5,22,0.00
2013-4-21,64,45,30,36,28,23,79,55,27,30.25,30.10,7,1,7,0.00
2013-4-22,65,47,31,35,28,22,79,50,25,30.22,30.07,4,1,6,0.00
2013-4-23,77,54,33,48,35,25,77,52,28,30.10,29.88,6,1,6,0.00
2013-4-24,73,54,45,53,44,37,76,69,42,29.94,29.71,21,3,21,0.03
2013-4-25,66,48,35,38,29,15,76,53,18,30.12,29.92,13,3,13,0.00
2013-4-26,72,51,31,40,30,24,78,49,23,30.21,30.10,7,1,7,0.00
2013-4-27,76,56,40,44,37,26,71,51,24,30.16,30.05,7,1,7,0.00
2013-4-28,55,51,49,49,45,41,91,82,63,30.06,29.87,7,0,7,0.37
2013-4-29,72,56,48,59,50,46,91,81,56,29.89,29.80,5,1,5,0.01
2013-4-30,78,61,51,59,52,47,92,73,44,30.06,29.86,7,1,7,0.00
2013-5-1,75,61,53,55,47,38,84,63,39,30.17,30.04,6,1,6,0.00
2013-5-2,79,62,50,51,44,37,69,52,33,30.15,30.07,6,1,6,0.00
2013-5-3,72,56,40,46,40,34,84,60,31,30.11,30.02,9,1,9,0.00
2013-5-4,68,54,40,44,38,31,77,58,28,30.04,29.91,7,1,7,0.00
2013-5-5,71,55,39,45,38,22,76,56,21,29.96,29.84,7,1,7,0.00
2013-5-6,63,53,49,53,46,43,88,80,65,29.88,29.82,6,1,8,0.00
2013-5-7,59,53,49,56,50,47,94,91,84,29.80,29.73,9,1,9,0.49
2013-5-8,63,53,48,55,49,45,95,89,66,29.84,29.74,3,0,5,0.49
2013-5-9,75,58,47,59,49,45,95,75,40,29.92,29.80,12,1,13,0.00
2013-5-10,83,61,49,62,53,46,90,77,42,29.93,29.78,8,1,8,0.37
2013-5-11,75,61,55,61,55,48,93,81,52,29.78,29.66,10,2,10,0.46
2013-5-12,55,48,38,48,35,28,84,61,40,29.87,29.67,14,3,14,0.00
2013-5-13,57,41,32,36,31,26,83,69,42,29.98,29.81,14,2,14,0.00
2013-5-14,71,49,31,42,34,27,89,62,28,30.01,29.82,6,1,6,0.00
2013-5-15,87,68,48,60,49,37,82,54,26,29.85,29.75,17,2,17,0.00
2013-5-16,70,63,55,54,51,48,89,68,48,29.89,29.78,7,1,7,0.21
2013-5-17,76,62,54,63,56,51,92,83,57,29.99,29.87,4,0,4,0.01
2013-5-18,74,63,58,66,59,55,93,87,67,30.00,29.93,5,0,5,0.01
2013-5-19,64,62,60,62,60,58,94,92,90,29.98,29.90,4,0,4,0.05
2013-5-20,80,67,59,69,62,57,95,85,66,29.95,29.87,5,0,5,0.00
2013-5-21,86,71,61,69,62,58,93,75,41,29.91,29.78,5,0,5,0.04
2013-5-22,84,65,57,67,60,54,92,83,44,29.86,29.76,11,0,11,0.04
2013-5-23,80,65,60,66,59,52,94,81,48,29.79,29.66,13,1,13,0.05
2013-5-24,60,50,43,53,42,33,87,73,53,30.02,29.71,14,2,14,0.01
2013-5-25,63,48,34,37,33,25,84,59,30,30.07,30.00,12,2,12,0.00
2013-5-26,69,53,38,42,33,24,88,53,21,30.08,30.01,8,1,8,0.00
2013-5-27,71,54,38,54,42,31,80,66,51,30.10,29.98,5,0,5,0.00
2013-5-28,82,66,50,63,54,46,88,68,42,30.03,29.93,8,1,8,0.00
2013-5-29,87,70,56,62,57,52,91,65,38,30.04,29.98,8,1,8,0.00
2013-5-30,89,69,55,66,57,50,88,70,36,30.11,30.02,7,1,7,0.00
2013-6-4,80,71,58,59,54,47,68,54,45,29.97,29.89,6,1,6,0.00
2013-6-5,58,56,55,49,48,47,77,74,68,29.97,29.94,1,0,1,0.00
2013-6-6,65,64,63,63,62,60,92,92,92,29.71,29.70,1,0,1,0.00
2013-6-7,62,62,62,60,60,60,93,93,93,29.71,29.70,0,0,0,0.00
2013-6-8,80,72,59,66,58,51,83,64,40,29.97,29.82,7,1,7,0.00
2013-6-9,85,68,56,66,59,52,90,75,38,30.02,29.91,4,0,4,0.09
2013-6-10,72,65,64,69,63,60,94,91,81,29.95,29.73,15,0,15,0.51
2013-6-11,74,74,74,62,62,60,67,65,63,29.80,29.80,7,2,7,0.00
2013-6-12,85,83,74,71,68,61,67,61,56,29.82,29.80,11,4,11,0.00
2013-6-13,85,85,85,68,68,68,58,58,58,29.80,29.80,1,1,1,0.00
2013-6-17,82,82,82,64,64,63,55,54,53,29.80,29.79,4,2,4,0.00
2013-6-18,81,81,81,63,63,63,54,54,54,29.80,29.80,3,3,3,0.00
2013-6-19,58,57,57,56,55,55,94,94,93,29.87,29.86,2,0,2,0.00
2013-6-24,81,71,64,72,66,61,91,83,68,30.08,29.95,3,0,4,0.14
2013-6-25,86,71,62,73,65,60,94,83,50,30.01,29.86,5,0,5,0.01
2013-6-26,82,72,65,71,65,61,94,79,51,29.89,29.77,9,1,9,0.00
2013-6-27,74,68,64,68,64,61,93,88,77,29.79,29.60,5,0,6,0.02
2013-6-28,84,72,64,67,62,56,94,74,41,29.62,29.47,16,2,16,0.07
2013-6-29,80,67,58,66,60,55,93,80,55,29.62,29.50,6,0,6,0.02
2013-6-30,86,70,59,66,62,56,92,77,44,29.75,29.61,4,0,4,0.00
2013-7-1,79,68,63,70,63,58,91,85,71,29.84,29.71,4,0,4,0.07
2013-7-2,77,69,65,70,65,62,94,89,72,30.00,29.83,3,0,3,0.07
2013-7-3,75,69,66,70,66,63,94,90,79,30.10,29.99,2,0,4,0.21
2013-7-4,81,70,65,72,67,63,95,89,70,30.11,30.03,5,0,5,0.02
2013-7-5,77,71,67,73,68,64,94,90,83,30.10,30.02,3,0,5,0.17
2013-7-6,84,72,64,73,66,62,95,85,65,30.09,29.97,3,0,4,0.00
2013-7-7,78,68,64,71,65,62,94,90,71,30.03,29.93,8,0,8,0.19
2013-7-8,80,69,63,68,64,61,94,84,62,30.03,29.97,6,1,6,0.00
2013-7-9,83,70,64,73,66,61,93,86,71,30.03,29.92,3,0,3,0.01
2013-7-10,74,69,66,71,67,64,94,93,89,29.88,29.83,3,0,3,0.33
2013-7-11,66,65,65,64,63,63,94,93,93,29.83,29.80,2,0,2,0.01
2013-7-14,81,74,66,70,66,62,88,76,65,30.19,30.14,3,1,3,0.00
2013-7-15,89,74,63,72,66,60,93,79,54,30.22,30.13,3,0,4,0.00
2013-7-16,89,73,66,74,67,63,93,83,55,30.21,30.11,5,0,5,0.18
2013-7-17,79,79,79,74,74,74,86,85,85,30.07,30.05,0,0,0,0.00
2013-7-18,86,77,70,77,71,67,91,84,72,30.06,29.98,4,0,4,0.14
2013-7-19,87,72,67,78,68,66,94,88,68,29.99,29.85,8,0,8,0.00
2013-7-20,86,74,66,74,68,64,94,82,60,29.88,29.78,8,1,8,0.00
2013-7-21,78,70,66,72,67,63,93,89,79,29.91,29.81,10,0,10,0.10
2013-7-22,81,72,67,73,68,65,94,88,71,29.86,29.69,3,0,3,0.30
2013-7-23,81,72,66,68,65,63,95,81,57,29.71,29.65,10,1,10,0.00
2013-7-24,79,70,63,67,63,57,93,80,61,29.81,29.65,5,0,5,0.00
2013-7-25,79,66,58,64,58,54,90,76,53,29.94,29.78,5,1,5,0.00
2013-7-26,81,66,54,63,57,51,90,75,47,29.96,29.88,2,0,5,0.00
2013-7-27,69,64,62,66,61,57,94,90,82,29.91,29.78,3,0,3,0.84
2013-7-28,77,66,59,66,61,55,95,85,56,29.91,29.76,6,0,6,0.00
2013-7-29,74,61,53,60,54,51,93,78,51,30.07,29.91,6,1,7,0.01
2013-7-30,79,64,53,65,57,50,92,79,59,30.09,30.01,4,0,4,0.00
2013-7-31,66,63,60,63,60,57,93,90,84,30.02,29.86,2,0,2,0.28
2013-8-1,77,67,61,68,62,59,95,87,63,29.86,29.76,9,1,9,0.08
2013-8-2,79,66,57,64,58,55,94,78,48,29.91,29.81,7,1,7,0.00
2013-8-3,76,66,59,67,60,56,93,82,58,29.90,29.83,7,1,7,0.00
2013-8-4,74,65,57,60,57,52,93,76,54,29.94,29.84,7,1,7,0.00
2013-8-5,77,62,52,62,55,48,91,78,55,29.97,29.86,5,0,5,0.00
2013-8-6,79,67,60,69,62,56,93,84,68,29.89,29.83,2,0,2,0.28
2013-8-7,80,70,66,72,66,63,94,89,73,29.91,29.87,4,0,4,0.47
2013-8-8,76,70,66,72,68,64,95,93,89,29.91,29.86,3,0,3,0.46
2013-8-9,81,72,69,72,69,67,95,90,71,29.88,29.84,4,1,8,0.01
2013-8-12,68,67,67,65,65,64,93,92,91,29.85,29.82,1,0,1,0.00
2013-8-13,79,69,62,69,64,60,95,87,62,29.83,29.70,7,1,7,0.02
2013-8-14,68,60,50,60,51,45,93,74,53,29.98,29.76,9,2,9,0.00
2013-8-15,50,50,49,46,46,45,88,86,85,29.98,29.96,1,0,1,0.00
2013-8-16,64,61,59,57,55,54,83,80,77,30.01,29.98,1,0,1,0.00
2013-8-17,68,66,59,60,59,54,83,78,73,30.05,30.01,3,1,3,0.00
2013-8-18,68,64,63,64,62,60,93,92,75,30.04,29.99,1,0,1,0.12
2013-8-19,76,66,62,71,64,59,95,92,81,30.02,29.93,3,0,3,0.04
2013-8-20,81,67,59,70,62,57,95,85,61,30.04,29.97,3,0,3,0.00
2013-8-21,80,68,64,71,64,61,94,89,71,30.07,29.97,6,0,6,0.20
2013-8-22,80,67,59,72,63,57,95,87,63,30.01,29.89,8,1,8,0.00
2013-8-23,77,66,60,67,62,57,95,87,66,29.99,29.87,7,1,7,0.13
2013-8-24,76,64,55,64,58,52,93,82,57,30.17,29.99,4,0,4,0.00
2013-8-25,77,64,55,64,57,53,93,81,58,30.23,30.12,5,0,5,0.00
2013-8-26,80,64,54,66,58,51,93,81,58,30.16,29.96,4,0,4,0.00
2013-8-27,79,69,60,68,63,57,94,83,64,29.97,29.85,7,1,7,0.00
2013-8-28,82,71,67,72,67,64,95,88,61,29.89,29.73,8,0,8,0.36
2013-8-29,82,72,67,74,68,66,95,91,70,29.86,29.76,5,0,5,0.03
2013-9-3,77,76,76,60,59,56,57,55,51,29.77,29.76,8,2,8,0.00
2013-9-5,76,73,69,62,61,60,77,68,62,29.98,29.95,6,2,6,0.00
2013-9-6,74,71,66,61,60,57,79,69,59,30.02,29.95,2,1,2,0.00
2013-9-7,78,69,57,63,55,51,84,63,39,29.95,29.85,4,1,4,0.00
2013-9-8,80,65,54,66,59,51,91,81,61,29.91,29.82,2,0,2,0.00
2013-9-9,76,68,61,69,63,58,93,87,77,30.02,29.91,2,0,2,0.00
2013-9-10,85,72,65,74,67,62,94,84,64,30.07,29.99,3,0,3,0.00
2013-9-11,84,70,65,73,66,63,94,87,66,30.07,29.95,6,0,6,0.00
2013-9-12,80,69,63,74,65,59,95,89,61,29.96,29.72,13,1,13,0.06
2013-9-13,62,61,60,59,58,57,92,90,89,29.71,29.67,0,0,0,0.00
2013-9-17,64,56,50,53,49,46,86,79,67,30.09,30.06,2,0,2,0.00
2013-9-18,67,56,46,58,51,43,91,84,71,30.09,29.96,4,0,4,0.00
2013-9-19,74,63,58,67,58,54,90,86,75,29.99,29.90,4,0,4,0.01
2013-9-30,65,64,63,58,57,56,80,79,77,29.84,29.84,0,0,0,0.00
2013-10-1,71,62,54,58,54,48,79,75,60,29.94,29.84,7,0,7,0.00
2013-10-2,75,60,50,65,50,40,79,70,55,29.98,29.91,6,1,6,0.00
2013-10-3,76,61,52,64,51,42,77,72,62,29.99,29.91,2,0,2,0.00
2013-10-8,61,51,45,50,43,38,78,73,64,30.04,29.99,1,0,1,0.00
2013-10-9,63,48,39,50,38,30,77,69,52,30.06,29.99,3,0,3,0.00
2013-10-13,63,63,63,54,54,54,73,73,73,30.04,30.04,0,0,0,0.00
2013-10-15,69,59,52,57,44,20,72,60,27,30.00,29.89,2,0,2,0.00
2013-10-16,67,57,48,57,41,19,71,57,28,29.89,29.76,3,0,3,0.01
2013-10-17,62,59,57,46,32,12,62,39,15,29.78,29.63,2,0,2,0.13
2013-11-11,54,46,41,28,25,21,58,45,34,29.90,29.83,4,1,4,0.00
2013-11-12,50,35,25,35,24,16,77,65,36,30.14,29.80,12,3,12,0.00
2013-11-13,37,27,22,23,16,14,76,64,44,30.20,30.12,10,2,10,0.01
2013-11-14,50,32,20,26,18,13,76,59,38,30.12,30.01,4,0,4,0.00
2013-11-15,56,50,39,36,31,19,72,51,28,30.02,29.92,4,1,4,0.11
2013-11-16,61,48,41,51,32,8,70,53,27,30.04,29.94,4,0,4,0.00
2013-11-17,62,54,50,50,31,6,67,44,17,29.96,29.68,5,0,5,0.00
2013-11-18,55,47,39,36,30,27,63,51,38,29.79,29.65,18,4,18,0.28
2013-11-19,40,35,29,28,25,21,73,67,58,30.05,29.78,16,2,16,0.00
2013-11-20,46,34,26,30,22,18,74,62,36,30.17,30.04,5,0,5,0.00
2013-11-21,47,39,30,38,30,21,72,69,59,30.21,30.10,2,0,2,0.00
2013-11-22,54,48,41,30,11,-5,61,25,1,30.10,29.87,8,0,8,0.05
2013-11-23,46,37,21,35,21,-8,73,54,11,29.96,29.86,16,4,16,0.00
2013-11-24,23,18,14,12,6,4,68,60,47,30.14,29.96,16,3,16,0.00
2013-11-25,38,25,13,22,12,5,75,60,36,30.15,29.99,4,1,5,0.00
2013-11-26,38,34,30,22,4,-17,71,33,1,30.00,29.42,2,0,2,0.79
2013-11-27,38,29,20,22,11,-17,74,55,1,29.82,29.40,21,3,21,0.01
2013-11-28,34,25,17,24,16,10,75,69,59,30.10,29.81,9,1,9,0.00
2013-11-29,39,25,20,25,17,12,74,71,55,30.24,30.09,7,0,7,0.01
2013-12-1,39,39,39,25,25,25,56,56,56,30.20,30.20,1,1,1,0.00
2013-12-2,49,44,35,38,34,21,71,67,56,29.67,29.59,4,0,4,0.00
2013-12-3,51,40,32,41,24,7,69,54,31,29.74,29.62,4,0,4,0.00
2013-12-4,60,48,38,49,29,4,69,50,23,29.81,29.72,5,0,5,0.00
2013-12-5,59,49,42,43,10,-18,54,21,1,29.84,29.76,4,0,4,0.03
2013-12-6,50,45,39,-4,-8,-13,1,1,1,29.86,29.68,11,1,11,0.36
2013-12-7,39,32,26,27,4,-19,70,36,1,30.16,29.84,10,1,10,0.00
2013-12-8,33,29,26,13,-1,-20,54,29,1,30.15,29.90,3,0,3,0.01
2013-12-9,40,34,30,-12,-17,-20,1,1,1,29.90,29.77,3,0,3,0.27
2013-12-10,34,29,22,23,2,-42,73,40,1,29.95,29.68,17,2,17,0.00
2013-12-11,22,21,20,15,14,13,75,73,72,30.01,29.94,9,2,9,0.00
2013-12-17,39,34,29,25,15,-17,72,47,11,29.77,29.66,5,1,5,0.08
2013-12-18,36,28,21,26,19,13,75,71,56,29.94,29.76,9,1,9,0.01
2013-12-19,51,32,16,34,21,6,73,63,45,29.96,29.89,8,1,8,0.02
2013-12-20,49,38,30,36,26,13,72,63,49,29.89,29.80,3,0,3,0.01
2013-12-21,58,46,35,47,29,-22,70,54,5,29.82,29.70,6,1,6,0.00